• Join FlightAware (Why Join?)
  • Login
  • US Flag 
05:50AM EDT


 

Airport Tracker/Info


-or-


 

Live Flight TrackerFlight Track Log ✈ N340K ✈ 06-Sep-2013 ✈ KBVS - KSTS

Flight Track Log - Related Links

Times and Time Zones

All times are in EDT time to prevent confusion due to time zone crossing. See the N340K flight status page for this flight to view local times or setup timezone preferences in your user account.

Time Position Orientation Groundspeed Altitude Reporting Facility
EDT Latitude Longitude Course Direction KTS MPH feet Rate Location/Type
04:42PM 48.4811 -122.4389 197° South 126 145 1,700  Level Seattle Center
04:43PM 48.4553 -122.4508 197° South 112 129 2,100 420 Climbing Seattle Center
04:44PM 48.4292 -122.4794 216° Southwest 121 139 2,500 540 Climbing Seattle Center
04:45PM 48.4033 -122.5178 225° Southwest 136 157 3,300 840 Climbing Seattle Center
04:46PM 48.3767 -122.5533 222° Southwest 134 154 4,200 840 Climbing Seattle Center
04:47PM 48.3486 -122.5889 220° Southwest 138 159 5,000 960 Climbing Seattle Center
04:47PM 48.3450 -122.5950 228° Southwest 136 157 5,200 960 Climbing Seattle Center
04:48PM 48.3203 -122.6261 220° Southwest 138 159 6,000 840 Climbing Seattle Center
04:48PM 48.3133 -122.6367 225° Southwest 140 161 6,200 780 Climbing Seattle Center
04:49PM 48.2922 -122.6644 221° Southwest 139 160 6,800 660 Climbing Seattle Center
04:49PM 48.2836 -122.6772 225° Southwest 147 169 6,900 660 Climbing Seattle Center
04:50PM 48.2606 -122.7050 219° Southwest 149 171 7,500 780 Climbing Seattle Center
04:51PM 48.2261 -122.7353 210° Southwest 148 170 8,400 840 Climbing Seattle Center
04:52PM 48.1764 -122.7303 176° South 153 176 9,300 840 Climbing Seattle Center
04:53PM 48.1339 -122.7106 163° South 163 188 10,200 720 Climbing Seattle Center
04:54PM 48.1031 -122.6603 133° Southeast 167 192 10,800 720 Climbing Seattle Center
04:55PM 48.0775 -122.6031 124° Southeast 168 193 11,700 780 Climbing Seattle Center
04:56PM 48.0508 -122.5475 126° Southeast 165 190 12,500 720 Climbing Seattle Center
04:57PM 48.0089 -122.5139 152° Southeast 190 219 13,200 780 Climbing Seattle Center
04:58PM 47.9592 -122.4953 166° South 187 215 14,100 840 Climbing Seattle Center
04:59PM 47.9086 -122.4769 166° South 189 217 15,000 840 Climbing Seattle Center
05:00PM 47.8472 -122.4569 168° South 191 220 15,900 780 Climbing Seattle Center
05:01PM 47.7919 -122.4394 168° South 197 227 16,700 780 Climbing Seattle Center
05:02PM 47.7381 -122.4194 166° South 200 230 17,600 720 Climbing Seattle Center
05:03PM 47.6861 -122.4017 167° South 196 226 18,200 600 Climbing Seattle Center
05:04PM 47.6333 -122.3814 165° South 197 227 18,900 420 Climbing Seattle Center
05:05PM 47.5744 -122.3608 167° South 204 235 19,100 60 Climbing Seattle Center
05:06PM 47.5119 -122.3392 167° South 224 258 19,100  Level Seattle Center
05:07PM 47.4497 -122.3175 167° South 230 265 19,100  Level Seattle Center
05:08PM 47.3861 -122.3056 173° South 232 267 19,100 -60 Level Seattle Center
05:09PM 47.3233 -122.3117 184° South 227 261 19,000 -60 Descending Seattle Center
05:10PM 47.2581 -122.3169 183° South 234 269 19,000  Level Seattle Center
05:11PM 47.1814 -122.3211 182° South 232 267 19,000  Level Seattle Center
05:12PM 47.1172 -122.3250 182° South 233 268 19,000  Level Seattle Center
05:13PM 47.0544 -122.3286 182° South 230 265 19,000  Level Seattle Center
05:14PM 46.9914 -122.3336 183° South 229 264 19,000  Level Seattle Center
05:15PM 46.9283 -122.3389 183° South 229 264 19,000  Level Seattle Center
05:16PM 46.8653 -122.3436 183° South 229 264 19,000  Level Seattle Center
05:17PM 46.8022 -122.3475 182° South 230 265 19,000  Level Seattle Center
05:18PM 46.7375 -122.3525 183° South 234 269 19,000  Level Seattle Center
05:19PM 46.6611 -122.3578 183° South 231 266 19,000  Level Seattle Center
05:20PM 46.5975 -122.3597 181° South 231 266 19,000  Level Seattle Center
05:21PM 46.5325 -122.3628 182° South 235 270 19,000  Level Seattle Center
05:22PM 46.4686 -122.3675 183° South 232 267 19,000  Level Seattle Center
05:23PM 46.4039 -122.3728 183° South 237 273 19,000  Level Seattle Center
05:24PM 46.3400 -122.3783 183° South 233 268 19,000  Level Seattle Center
05:25PM 46.2767 -122.3811 182° South 231 266 19,000  Level Seattle Center
05:26PM 46.2122 -122.3836 182° South 234 269 19,000  Level Seattle Center
05:27PM 46.1514 -122.3889 183° South 227 261 19,000  Level Seattle Center
05:28PM 46.0739 -122.3931 182° South 230 265 19,000  Level Seattle Center
05:29PM 46.0100 -122.3967 182° South 230 265 19,000  Level Seattle Center
05:30PM 45.9483 -122.4006 183° South 225 259 19,000  Level Seattle Center
05:31PM 45.8858 -122.4036 182° South 226 260 19,000  Level Seattle Center
05:32PM 45.8239 -122.4078 183° South 223 257 19,000  Level Seattle Center
05:33PM 45.7622 -122.4133 184° South 221 254 19,000  Level Seattle Center
05:34PM 45.7011 -122.4158 182° South 221 254 19,000  Level Seattle Center
05:35PM 45.6411 -122.4194 182° South 218 251 19,000  Level Seattle Center
05:36PM 45.5800 -122.4239 183° South 219 252 19,000  Level Seattle Center
05:38PM 45.5192 -122.4278 183° South 219 252 19,000  Level Seattle Center
05:39PM 45.4592 -122.4322 183° South 216 249 19,000  Level Seattle Center
05:40PM 45.3981 -122.4358 182° South 218 251 19,000  Level Seattle Center
05:41PM 45.3367 -122.4383 182° South 217 250 19,000  Level Seattle Center
05:42PM 45.2769 -122.4436 184° South 217 250 19,000  Level Seattle Center
05:43PM 45.2169 -122.4472 182° South 216 249 19,000  Level Seattle Center
05:44PM 45.1450 -122.4514 182° South 216 249 19,000  Level Seattle Center
05:45PM 45.0842 -122.4536 181° South 217 250 19,000  Level Seattle Center
05:46PM 45.0253 -122.4581 183° South 214 246 19,000  Level Seattle Center
05:47PM 44.9661 -122.4619 183° South 213 245 19,000  Level Seattle Center
05:48PM 44.9067 -122.4669 183° South 213 245 19,000  Level Seattle Center
05:49PM 44.8500 -122.4692 182° South 216 249 19,000  Level Seattle Center
05:50PM 44.7911 -122.4714 182° South 213 245 19,000  Level Seattle Center
05:51PM 44.7325 -122.4753 183° South 211 243 19,000  Level Seattle Center
05:52PM 44.6739 -122.4792 183° South 211 243 19,000  Level Seattle Center
05:53PM 44.6025 -122.4819 182° South 213 245 19,000  Level Seattle Center
05:54PM 44.5442 -122.4869 183° South 210 242 19,000 60 Level Seattle Center
05:55PM 44.4867 -122.4886 181° South 207 238 19,200 240 Climbing Seattle Center
05:56PM 44.4322 -122.4939 184° South 199 229 19,500 180 Climbing Seattle Center
05:57PM 44.3781 -122.4975 183° South 194 223 19,600 120 Climbing Seattle Center
05:58PM 44.3222 -122.5014 183° South 198 228 19,800 180 Climbing Seattle Center
05:59PM 44.2681 -122.5044 182° South 196 226 20,000 240 Climbing Seattle Center
06:00PM 44.2142 -122.5064 181° South 194 223 20,300 180 Climbing Seattle Center
06:01PM 44.1614 -122.5094 182° South 192 221 20,400 60 Climbing Seattle Center
06:02PM 44.1069 -122.5117 182° South 193 222 20,500 120 Climbing Seattle Center
06:03PM 44.0533 -122.5156 183° South 193 222 20,700 60 Climbing Seattle Center
06:04PM 43.9978 -122.5183 182° South 198 228 20,700 120 Level Seattle Center
06:05PM 43.9422 -122.5219 183° South 198 228 21,000 240 Climbing Seattle Center
06:05PM 43.9422 -122.5219 183° South 198 228 21,000 60 Level Seattle Center
06:06PM 43.8869 -122.5269 184° South 198 228 21,100 60 Climbing Seattle Center
06:06PM 43.8869 -122.5269 184° South 198 228 21,100 -120 Level Seattle Center
06:07PM 43.8300 -122.5303 182° South 204 235 21,000 -120 Descending Seattle Center
06:07PM 43.8300 -122.5303 182° South 204 235 21,000  Level Seattle Center
06:08PM 43.7714 -122.5317 181° South 209 241 21,000  Level Seattle Center
06:08PM 43.7714 -122.5317 181° South 209 241 21,000  Level Seattle Center
06:09PM 43.7133 -122.5356 183° South 209 241 21,000  Level Seattle Center
06:09PM 43.7133 -122.5356 183° South 209 241 21,000  Level Seattle Center
06:10PM 43.6447 -122.5386 182° South 206 237 21,000  Level Seattle Center
06:10PM 43.6447 -122.5386 182° South 206 237 21,000  Level Seattle Center
06:11PM 43.5867 -122.5414 182° South 206 237 21,000  Level Seattle Center
06:11PM 43.5867 -122.5414 182° South 206 237 21,000  Level Seattle Center
06:12PM 43.5292 -122.5453 183° South 206 237 21,000  Level Seattle Center
06:12PM 43.5292 -122.5453 183° South 206 237 21,000  Level Seattle Center
06:13PM 43.4708 -122.5489 183° South 207 238 21,000  Level Seattle Center
06:13PM 43.4708 -122.5489 183° South 207 238 21,000  Level Seattle Center
06:14PM 43.4128 -122.5519 182° South 208 239 21,000  Level Seattle Center
06:14PM 43.4128 -122.5519 182° South 208 239 21,000  Level Seattle Center
06:15PM 43.3556 -122.5556 183° South 207 238 21,000  Level Seattle Center
06:15PM 43.3556 -122.5556 183° South 207 238 21,000  Level Seattle Center
06:16PM 43.2969 -122.5589 182° South 209 241 21,000  Level Seattle Center
06:16PM 43.2969 -122.5589 182° South 209 241 21,000  Level Seattle Center
06:17PM 43.2389 -122.5631 183° South 209 241 21,000  Level Seattle Center
06:17PM 43.2389 -122.5631 183° South 209 241 21,000  Level Seattle Center
06:18PM 43.1817 -122.5661 182° South 207 238 21,000  Level Seattle Center
06:18PM 43.1817 -122.5661 182° South 207 238 21,000  Level Seattle Center
06:19PM 43.1239 -122.5683 182° South 207 238 21,000  Level Seattle Center
06:19PM 43.1239 -122.5683 182° South 207 238 21,000  Level Seattle Center
06:20PM 43.0656 -122.5717 182° South 208 239 21,000  Level Seattle Center
06:20PM 43.0656 -122.5717 182° South 208 239 21,000  Level Seattle Center
06:21PM 43.0086 -122.5753 183° South 206 237 21,000  Level Seattle Center
06:21PM 43.0086 -122.5753 183° South 206 237 21,000  Level Seattle Center
06:22PM 42.9517 -122.5781 182° South 206 237 21,000  Level Seattle Center
06:22PM 42.9517 -122.5781 182° South 206 237 21,000  Level Seattle Center
06:23PM 42.8836 -122.5806 182° South 204 235 21,000  Level Seattle Center
06:23PM 42.8836 -122.5806 182° South 204 235 21,000  Level Seattle Center
06:24PM 42.8275 -122.5853 184° South 202 232 21,000  Level Seattle Center
06:24PM 42.8275 -122.5853 184° South 202 232 21,000  Level Seattle Center
06:25PM 42.7711 -122.5875 182° South 203 234 21,000  Level Seattle Center
06:25PM 42.7711 -122.5875 182° South 203 234 21,000  Level Seattle Center
06:26PM 42.7175 -122.5911 183° South 202 232 21,000  Level Seattle Center
06:26PM 42.7175 -122.5911 183° South 202 232 21,000  Level Seattle Center
06:27PM 42.6617 -122.5939 182° South 202 232 21,000  Level Seattle Center
06:27PM 42.6617 -122.5939 182° South 202 232 21,000  Level Seattle Center
06:28PM 42.6050 -122.5972 182° South 204 235 21,000  Level Seattle Center
06:28PM 42.6050 -122.5972 182° South 204 235 21,000  Level Seattle Center
06:29PM 42.5489 -122.6008 183° South 202 232 21,000  Level Seattle Center
06:29PM 42.5489 -122.6008 183° South 202 232 21,000  Level Seattle Center
06:30PM 42.4922 -122.6047 183° South 204 235 21,000  Level Seattle Center
06:30PM 42.4922 -122.6047 183° South 204 235 21,000  Level Seattle Center
06:31PM 42.4239 -122.6069 181° South 204 235 21,000  Level Seattle Center
06:31PM 42.4239 -122.6069 181° South 204 235 21,000  Level Seattle Center
06:32PM 42.3681 -122.6108 183° South 202 232 21,000  Level Seattle Center
06:32PM 42.3681 -122.6108 183° South 202 232 21,000  Level Seattle Center
06:33PM 42.3122 -122.6139 182° South 201 231 21,000  Level Seattle Center
06:33PM 42.3122 -122.6139 182° South 201 231 21,000  Level Seattle Center
06:34PM 42.2578 -122.6167 182° South 198 228 21,000  Level Seattle Center
06:34PM 42.2578 -122.6167 182° South 198 228 21,000  Level Seattle Center
06:35PM 42.2028 -122.6200 183° South 198 228 21,000  Level Seattle Center
06:35PM 42.2028 -122.6200 183° South 198 228 21,000  Level Seattle Center
06:36PM 42.1472 -122.6239 183° South 200 230 21,000  Level Seattle Center
06:36PM 42.1472 -122.6239 183° South 200 230 21,000  Level Seattle Center
06:37PM 42.0933 -122.6264 182° South 196 226 21,000  Level Seattle Center
06:37PM 42.0933 -122.6264 182° South 196 226 21,000  Level Seattle Center
06:39PM 42.0397 -122.6294 182° South 194 223 21,000  Level Seattle Center
06:39PM 42.0397 -122.6294 182° South 194 223 21,000  Level Seattle Center
06:40PM 41.9864 -122.6317 182° South 192 221 21,000  Level Seattle Center
06:40PM 41.9864 -122.6317 182° South 192 221 21,000 60 Level Seattle Center
06:41PM 41.9319 -122.6356 183° South 195 224 21,100 60 Climbing Seattle Center
06:41PM 41.9319 -122.6356 183° South 195 224 21,100 -120 Level Seattle Center
06:42PM 41.8683 -122.6392 182° South 194 223 21,000 -120 Descending Seattle Center
06:42PM 41.8683 -122.6392 182° South 194 223 21,000  Level Seattle Center
06:43PM 41.8144 -122.6422 182° South 195 224 21,000  Level Seattle Center
06:43PM 41.8144 -122.6422 182° South 195 224 21,000  Level Seattle Center
06:44PM 41.7606 -122.6469 184° South 194 223 21,000  Level Seattle Center
06:44PM 41.7606 -122.6469 184° South 194 223 21,000  Level Seattle Center
06:45PM 41.7078 -122.6503 183° South 192 221 21,000  Level Seattle Center
06:45PM 41.7078 -122.6503 183° South 192 221 21,000  Level Seattle Center
06:46PM 41.6544 -122.6528 182° South 192 221 21,000  Level Seattle Center
06:46PM 41.6544 -122.6528 182° South 192 221 21,000  Level Seattle Center
06:47PM 41.6014 -122.6558 182° South 192 221 21,000  Level Seattle Center
06:47PM 41.6014 -122.6558 182° South 192 221 21,000  Level Seattle Center
06:48PM 41.5481 -122.6586 182° South 193 222 21,000  Level Seattle Center
06:48PM 41.5481 -122.6586 182° South 193 222 21,000  Level Seattle Center
06:49PM 41.4944 -122.6625 183° South 193 222 21,000  Level Seattle Center
06:49PM 41.4944 -122.6625 183° South 193 222 21,000  Level Seattle Center
06:50PM 41.4408 -122.6647 182° South 193 222 21,000  Level Seattle Center
06:50PM 41.4408 -122.6647 182° South 193 222 21,000  Level Seattle Center
06:51PM 41.3808 -122.6694 183° South 194 223 21,000  Level Seattle Center
06:51PM 41.3808 -122.6694 183° South 194 223 21,000  Level Seattle Center
06:52PM 41.3267 -122.6725 182° South 195 224 21,000  Level Seattle Center
06:52PM 41.3267 -122.6725 182° South 195 224 21,000 60 Level Seattle Center
06:53PM 41.2722 -122.6753 182° South 196 226 21,100 60 Climbing Seattle Center
06:53PM 41.2722 -122.6753 182° South 196 226 21,100 -120 Level Seattle Center
06:54PM 41.2183 -122.6772 182° South 195 224 21,000 -120 Descending Seattle Center
06:54PM 41.2183 -122.6772 182° South 195 224 21,000 60 Level Seattle Center
06:55PM 41.1636 -122.6803 182° South 196 226 21,100 60 Climbing Seattle Center
06:55PM 41.1636 -122.6803 182° South 196 226 21,100 -120 Level Seattle Center
06:56PM 41.1089 -122.6817 181° South 197 227 21,000 -120 Descending Oakland Center
06:56PM 41.1089 -122.6817 181° South 197 227 21,000  Level Oakland Center
06:57PM 41.0558 -122.6850 183° South 192 221 21,000  Level Oakland Center
06:57PM 41.0558 -122.6850 183° South 192 221 21,000  Level Oakland Center
06:58PM 41.0003 -122.6872 182° South 197 227 21,000  Level Oakland Center
06:58PM 41.0003 -122.6872 182° South 197 227 21,000 60 Level Oakland Center
06:59PM 40.9350 -122.6911 183° South 195 224 21,100 60 Climbing Oakland Center
06:59PM 40.9350 -122.6911 183° South 195 224 21,100  Level Oakland Center
06:59PM 40.9350 -122.6911 183° South 195 224 21,100  Level Oakland Center
06:59PM 40.9350 -122.6911 183° South 195 224 21,100  Level Oakland Center
06:59PM 40.9350 -122.6911 183° South 195 224 21,100 -120 Level Oakland Center
07:00PM 40.8803 -122.6944 183° South 196 226 21,000 -60 Descending Oakland Center
07:01PM 40.8256 -122.6983 183° South 199 229 21,000  Level Oakland Center
07:02PM 40.7703 -122.6989 180° South 201 231 21,000  Level Oakland Center
07:03PM 40.7153 -122.7019 182° South 199 229 21,000  Level Oakland Center
07:04PM 40.6600 -122.7058 183° South 200 230 21,000  Level Oakland Center
07:05PM 40.6044 -122.7083 182° South 202 232 21,100  Climbing Oakland Center
07:06PM 40.5489 -122.7103 182° South 201 231 21,100 -60 Level Oakland Center
07:07PM 40.4939 -122.7147 184° South 200 230 21,000  Descending Oakland Center
07:08PM 40.4269 -122.7175 182° South 201 231 21,100  Climbing Oakland Center
07:09PM 40.3717 -122.7208 183° South 200 230 21,000  Descending Oakland Center
07:10PM 40.3158 -122.7236 182° South 201 231 21,100  Climbing Oakland Center
07:11PM 40.2603 -122.7264 182° South 201 231 21,100  Level Oakland Center
07:12PM 40.2033 -122.7300 183° South 204 235 21,100 -60 Level Oakland Center
07:13PM 40.1472 -122.7325 182° South 204 235 21,000  Descending Oakland Center
07:14PM 40.0903 -122.7375 184° South 205 236 21,100  Climbing Oakland Center
07:15PM 40.0233 -122.7394 181° South 202 232 21,000  Descending Oakland Center
07:16PM 39.9664 -122.7417 182° South 205 236 21,100 -480 Climbing Oakland Center
07:17PM 39.9075 -122.7525 188° South 213 245 20,100 -1,080 Descending Oakland Center
07:18PM 39.8414 -122.7633 187° South 236 272 19,000 -960 Descending Oakland Center
07:19PM 39.7783 -122.7722 186° South 230 265 18,200 -900 Descending Oakland Center
07:20PM 39.7147 -122.7825 187° South 230 265 17,200 -1,080 Descending Oakland Center
07:21PM 39.6514 -122.7928 187° South 229 264 16,000 -1,320 Descending Oakland Center
07:22PM 39.5753 -122.8053 187° South 230 265 14,500 -1,320 Descending Oakland Center
07:23PM 39.5119 -122.8136 186° South 229 264 13,400 -960 Descending Oakland Center
07:24PM 39.4494 -122.8236 187° South 227 261 12,600 -660 Descending Oakland Center
07:25PM 39.3919 -122.8350 189° South 214 246 12,100 -600 Descending Oakland Center
07:27PM 39.3333 -122.8425 186° South 212 244 11,400 -540 Descending Oakland Center
07:28PM 39.2744 -122.8517 187° South 212 244 11,000 -420 Descending Oakland Center
07:29PM 39.2172 -122.8594 186° South 208 239 10,600 -480 Descending Oakland Center
07:30PM 39.1600 -122.8661 185° South 207 238 10,100 -300 Descending Oakland Center
07:31PM 39.0958 -122.8753 186° South 199 229 10,100  Level Oakland Center
07:32PM 39.0442 -122.8831 187° South 191 220 10,100 -240 Level Oakland Center
07:33PM 38.9900 -122.8906 186° South 193 222 9,700 -600 Descending Oakland Center
07:34PM 38.9317 -122.8975 185° South 204 235 8,900 -960 Descending Oakland Center
07:35PM 38.8714 -122.9053 186° South 214 246 7,800 -1,020 Descending Oakland Center
07:36PM 38.8175 -122.9219 194° South 210 242 6,800 -1,080 Descending Oakland Center
07:37PM 38.7650 -122.9519 204° Southwest 209 241 5,600 -1,380 Descending Oakland Center
07:38PM 38.7061 -122.9253 161° South 198 228 4,000 -1,260 Descending Oakland Center
07:39PM 38.6594 -122.8911 150° Southeast 197 227 3,100 -960 Descending Oakland Center
07:40PM 38.6139 -122.8658 157° South 187 215 2,100 -780 Descending Oakland Center
07:41PM 38.5700 -122.8425 157° South 179 206 1,500 -660 Descending Oakland Center
07:42PM 38.5403 -122.8264 157° South 140 161 800 -720 Descending Oakland Center